createdAt,value
2023-12-31T00:00:03.422Z,1.33
2023-12-31T00:02:32.422Z,1.30
2023-12-31T00:05:01.546Z,1.15
2023-12-31T00:07:30.321Z,1.00
2023-12-31T00:09:59.240Z,1.20
2023-12-31T00:12:31.899Z,1.05
2023-12-31T00:15:01.373Z,1.35
2023-12-31T00:17:30.831Z,0.82
2023-12-31T00:20:00.282Z,1.30
2023-12-31T00:22:29.352Z,0.98
2023-12-31T00:24:58.764Z,1.00
2023-12-31T00:27:27.815Z,1.00
2023-12-31T00:29:56.856Z,1.20
2023-12-31T00:32:25.632Z,0.95
2023-12-31T00:34:54.163Z,1.05
2023-12-31T00:37:23.135Z,1.02
2023-12-31T00:39:52.391Z,0.90
2023-12-31T00:42:21.012Z,0.98
2023-12-31T00:44:49.316Z,1.00
2023-12-31T00:47:18.316Z,0.90
2023-12-31T00:49:48.313Z,1.00
2023-12-31T00:52:17.682Z,1.08
2023-12-31T00:54:46.712Z,0.90
2023-12-31T00:57:15.953Z,0.80
2023-12-31T00:59:45.172Z,0.90
2023-12-31T01:02:14.023Z,0.70
2023-12-31T01:04:42.022Z,0.85
2023-12-31T01:07:10.710Z,0.90
2023-12-31T01:09:39.017Z,0.75
2023-12-31T01:12:08.135Z,0.90
2023-12-31T01:14:39.016Z,0.80
2023-12-31T01:17:08.595Z,0.70
2023-12-31T01:19:37.332Z,0.70
2023-12-31T01:22:06.783Z,0.88
2023-12-31T01:24:35.743Z,0.70
2023-12-31T01:27:04.712Z,0.80
2023-12-31T01:29:33.189Z,0.82
2023-12-31T01:32:01.874Z,0.77
2023-12-31T01:34:30.513Z,0.73
2023-12-31T01:37:02.072Z,0.80
2023-12-31T01:39:31.052Z,0.70
2023-12-31T01:41:59.452Z,0.95
2023-12-31T01:44:27.994Z,0.60
2023-12-31T01:46:57.442Z,0.60
2023-12-31T01:49:26.778Z,0.85
2023-12-31T01:51:56.084Z,0.80
2023-12-31T01:54:25.002Z,0.90
2023-12-31T01:56:54.013Z,0.80
2023-12-31T01:59:22.547Z,0.70
2023-12-31T02:01:56.418Z,0.82
2023-12-31T02:04:25.729Z,0.70
2023-12-31T02:06:54.942Z,0.90
2023-12-31T02:09:23.968Z,1.00
2023-12-31T02:11:52.537Z,0.60
2023-12-31T02:14:20.758Z,0.77
2023-12-31T02:16:52.252Z,0.90
2023-12-31T02:19:21.562Z,1.00
2023-12-31T02:21:51.586Z,0.73
2023-12-31T02:24:20.990Z,0.60
2023-12-31T02:26:49.903Z,0.70
2023-12-31T02:29:18.452Z,0.65
2023-12-31T02:31:47.043Z,0.77
2023-12-31T02:34:15.331Z,0.68
2023-12-31T02:36:43.206Z,0.70
2023-12-31T02:39:12.513Z,0.80
2023-12-31T02:41:41.648Z,0.70
2023-12-31T02:44:11.099Z,0.80
2023-12-31T02:46:39.704Z,0.85
2023-12-31T02:49:08.105Z,0.60
2023-12-31T02:51:37.488Z,0.70
2023-12-31T02:54:06.409Z,0.77
2023-12-31T02:56:35.499Z,0.73
2023-12-31T02:59:03.979Z,0.70
2023-12-31T03:01:32.597Z,0.75
2023-12-31T03:04:01.865Z,0.80
2023-12-31T03:06:30.911Z,0.65
2023-12-31T03:09:00.974Z,0.80
2023-12-31T03:11:29.828Z,0.80
2023-12-31T03:13:58.736Z,0.70
2023-12-31T03:16:27.832Z,1.00
2023-12-31T03:18:56.825Z,0.70
2023-12-31T03:21:26.344Z,0.90
2023-12-31T03:23:55.414Z,0.60
2023-12-31T03:26:25.474Z,0.95
2023-12-31T03:28:54.021Z,0.90
2023-12-31T03:31:22.990Z,0.73
2023-12-31T03:33:51.307Z,1.10
2023-12-31T03:36:19.391Z,0.80
2023-12-31T03:38:47.660Z,0.77
2023-12-31T03:41:16.741Z,0.80
2023-12-31T03:43:46.278Z,0.70
2023-12-31T03:46:15.456Z,0.82
2023-12-31T03:48:45.041Z,1.20
2023-12-31T03:51:14.004Z,0.70
2023-12-31T03:53:42.890Z,0.65
2023-12-31T03:56:12.044Z,0.98
2023-12-31T03:58:41.194Z,0.90
2023-12-31T04:01:09.763Z,1.00
2023-12-31T04:03:38.819Z,0.98
2023-12-31T04:06:07.824Z,0.85
2023-12-31T04:08:36.892Z,0.82
2023-12-31T04:11:05.868Z,0.90
2023-12-31T04:13:35.061Z,0.73
2023-12-31T04:16:03.018Z,0.80
2023-12-31T04:18:32.222Z,1.08
2023-12-31T04:21:01.267Z,1.02
2023-12-31T04:23:30.224Z,0.68
2023-12-31T04:25:59.273Z,0.88
2023-12-31T04:28:28.734Z,0.90
2023-12-31T04:30:58.124Z,0.90
2023-12-31T04:33:27.167Z,0.90
2023-12-31T04:35:55.826Z,0.85
2023-12-31T04:38:23.744Z,0.70
2023-12-31T04:40:52.709Z,0.75
2023-12-31T04:43:22.103Z,0.90
2023-12-31T04:45:51.048Z,0.75
2023-12-31T04:48:19.945Z,0.80
2023-12-31T04:50:48.883Z,0.73
2023-12-31T04:53:17.520Z,0.93
2023-12-31T04:55:47.143Z,0.93
2023-12-31T04:58:16.272Z,0.90
2023-12-31T05:00:45.710Z,0.77
2023-12-31T05:03:14.633Z,0.70
2023-12-31T05:05:43.943Z,0.70
2023-12-31T05:08:13.531Z,0.95
2023-12-31T05:10:42.968Z,0.80
2023-12-31T05:13:12.025Z,0.70
2023-12-31T05:15:41.058Z,1.00
2023-12-31T05:18:10.388Z,1.00
2023-12-31T05:20:38.756Z,0.77
2023-12-31T05:23:08.133Z,0.70
2023-12-31T05:25:37.104Z,0.80
2023-12-31T05:28:06.437Z,0.90
2023-12-31T05:30:35.273Z,0.80
2023-12-31T05:33:05.043Z,0.80
2023-12-31T05:35:34.577Z,1.00
2023-12-31T05:38:04.083Z,0.90
2023-12-31T05:40:33.496Z,1.02
2023-12-31T05:43:03.153Z,0.90
2023-12-31T05:45:32.624Z,0.85
2023-12-31T05:48:02.104Z,1.13
2023-12-31T05:50:31.250Z,0.80
2023-12-31T05:53:00.154Z,1.00
2023-12-31T05:55:29.048Z,1.00
2023-12-31T05:57:57.977Z,0.93
2023-12-31T06:00:26.837Z,1.40
2023-12-31T06:02:56.313Z,0.80
2023-12-31T06:05:25.851Z,0.90
2023-12-31T06:07:55.243Z,0.93
2023-12-31T06:10:24.496Z,1.05
2023-12-31T06:12:53.913Z,0.90
2023-12-31T06:15:22.948Z,1.15
2023-12-31T06:17:51.638Z,1.00
2023-12-31T06:20:21.046Z,0.95
2023-12-31T06:22:50.479Z,1.08
2023-12-31T06:25:19.412Z,1.10
2023-12-31T06:27:48.857Z,1.30
2023-12-31T06:30:18.411Z,0.90
2023-12-31T06:32:47.926Z,1.30
2023-12-31T06:35:17.206Z,1.13
2023-12-31T06:37:45.596Z,0.98
2023-12-31T06:40:15.072Z,0.98
2023-12-31T06:42:44.127Z,1.00
2023-12-31T06:45:13.250Z,1.00
2023-12-31T06:47:42.650Z,1.27
2023-12-31T06:50:12.141Z,0.88
2023-12-31T06:52:41.803Z,1.33
2023-12-31T06:55:10.969Z,1.13
2023-12-31T06:57:40.425Z,1.27
2023-12-31T07:00:10.083Z,1.38
2023-12-31T07:02:39.643Z,1.10
2023-12-31T07:05:09.091Z,1.20
2023-12-31T07:07:37.990Z,1.10
2023-12-31T07:10:07.070Z,1.00
2023-12-31T07:12:36.395Z,1.33
2023-12-31T07:15:05.722Z,1.23
2023-12-31T07:17:35.189Z,1.25
2023-12-31T07:20:04.704Z,1.35
2023-12-31T07:22:34.209Z,1.05
2023-12-31T07:25:03.075Z,1.40
2023-12-31T07:27:32.360Z,1.35
2023-12-31T07:30:01.808Z,1.30
2023-12-31T07:32:31.295Z,1.10
2023-12-31T07:35:00.388Z,1.17
2023-12-31T07:37:29.776Z,1.33
2023-12-31T07:40:01.553Z,1.38
2023-12-31T07:42:32.489Z,1.20
2023-12-31T07:45:01.798Z,1.30
2023-12-31T07:47:30.059Z,1.60
2023-12-31T07:49:59.084Z,1.30
2023-12-31T07:52:28.076Z,1.60
2023-12-31T07:54:57.036Z,1.20
2023-12-31T07:57:26.423Z,1.40
2023-12-31T07:59:55.969Z,1.55
2023-12-31T08:02:25.480Z,1.40
2023-12-31T08:04:54.864Z,1.30
2023-12-31T08:07:24.227Z,1.30
2023-12-31T08:09:53.638Z,1.20
2023-12-31T08:12:22.726Z,1.30
2023-12-31T08:14:52.073Z,1.40
2023-12-31T08:17:21.555Z,1.35
2023-12-31T08:19:51.059Z,1.65
2023-12-31T08:22:20.665Z,1.48
2023-12-31T08:24:50.074Z,1.40
2023-12-31T08:27:19.444Z,1.80
2023-12-31T08:29:49.085Z,1.25
2023-12-31T08:32:18.618Z,1.48
2023-12-31T08:34:47.680Z,1.60
2023-12-31T08:37:16.857Z,1.65
2023-12-31T08:39:45.899Z,1.45
2023-12-31T08:42:15.711Z,1.50
2023-12-31T08:44:56.698Z,1.52
2023-12-31T08:47:30.502Z,1.42
2023-12-31T08:50:00.931Z,1.52
2023-12-31T08:52:32.274Z,1.63
2023-12-31T08:55:03.736Z,1.50
2023-12-31T08:57:33.294Z,1.55
2023-12-31T09:00:01.551Z,1.52
2023-12-31T09:02:30.132Z,1.67
2023-12-31T09:04:59.811Z,1.50
2023-12-31T09:07:29.181Z,1.65
2023-12-31T09:09:57.904Z,1.65
2023-12-31T09:12:27.164Z,1.63
2023-12-31T09:14:56.668Z,1.90
2023-12-31T09:17:26.198Z,1.60
2023-12-31T09:19:55.346Z,1.92
2023-12-31T09:22:24.799Z,1.60
2023-12-31T09:24:53.658Z,1.70
2023-12-31T09:27:22.544Z,1.58
2023-12-31T09:29:51.173Z,1.80
2023-12-31T09:32:19.920Z,2.03
2023-12-31T09:34:48.986Z,1.63
2023-12-31T09:37:18.395Z,1.77
2023-12-31T09:39:47.267Z,1.50
2023-12-31T09:42:16.031Z,1.80
2023-12-31T09:44:45.354Z,1.60
2023-12-31T09:47:14.428Z,1.70
2023-12-31T09:49:43.074Z,1.70
2023-12-31T09:52:11.587Z,1.60
2023-12-31T09:54:40.586Z,1.70
2023-12-31T09:57:12.086Z,1.40
2023-12-31T09:59:44.111Z,1.48
2023-12-31T10:02:13.075Z,1.38
2023-12-31T10:04:42.701Z,1.30
2023-12-31T10:07:12.187Z,1.30
2023-12-31T10:09:41.172Z,1.40
2023-12-31T10:12:10.212Z,1.20
2023-12-31T10:14:38.944Z,1.30
2023-12-31T10:17:07.167Z,1.40
2023-12-31T10:19:35.370Z,1.10
2023-12-31T10:22:05.349Z,1.30
2023-12-31T10:24:35.264Z,1.00
2023-12-31T10:27:04.611Z,1.20
2023-12-31T10:29:33.932Z,1.30
2023-12-31T10:32:03.520Z,1.00
2023-12-31T10:34:33.093Z,1.30
2023-12-31T10:37:02.548Z,1.20
2023-12-31T10:39:31.392Z,1.02
2023-12-31T10:42:00.593Z,1.20
2023-12-31T10:44:29.361Z,1.20
2023-12-31T10:46:58.850Z,1.10
2023-12-31T10:49:28.248Z,0.90
2023-12-31T10:51:57.175Z,1.00
2023-12-31T10:54:26.526Z,1.20
2023-12-31T10:56:55.373Z,0.98
2023-12-31T10:59:24.727Z,1.00
2023-12-31T11:01:53.769Z,1.20
2023-12-31T11:04:22.717Z,1.30
2023-12-31T11:06:52.191Z,1.33
2023-12-31T11:09:21.613Z,1.00
2023-12-31T11:11:50.612Z,0.70
2023-12-31T11:14:19.999Z,1.00
2023-12-31T11:16:49.454Z,1.27
2023-12-31T11:19:18.946Z,1.42
2023-12-31T11:21:48.306Z,1.00
2023-12-31T11:24:17.812Z,1.08
2023-12-31T11:26:47.318Z,1.13
2023-12-31T11:29:16.614Z,1.08
2023-12-31T11:31:48.181Z,1.02
2023-12-31T11:34:22.958Z,1.00
2023-12-31T11:36:52.234Z,1.08
2023-12-31T11:39:21.189Z,1.00
2023-12-31T11:41:50.142Z,1.08
2023-12-31T11:44:19.503Z,1.38
2023-12-31T11:46:48.973Z,0.90
2023-12-31T11:49:18.446Z,0.90
2023-12-31T11:51:47.360Z,0.98
2023-12-31T11:54:17.739Z,1.10
2023-12-31T11:56:47.095Z,1.00
2023-12-31T11:59:16.556Z,1.05
2023-12-31T12:01:45.988Z,0.90
2023-12-31T12:04:14.986Z,0.85
2023-12-31T12:06:44.335Z,0.88
2023-12-31T12:09:13.286Z,0.70
2023-12-31T12:11:42.333Z,0.80
2023-12-31T12:14:11.652Z,0.70
2023-12-31T12:16:40.769Z,0.80
2023-12-31T12:19:08.970Z,0.80
2023-12-31T12:21:37.841Z,0.90
2023-12-31T12:24:07.264Z,1.10
2023-12-31T12:26:36.176Z,1.00
2023-12-31T12:29:05.335Z,0.90
2023-12-31T12:31:34.206Z,0.88
2023-12-31T12:34:03.618Z,1.13
2023-12-31T12:36:33.116Z,1.00
2023-12-31T12:39:02.603Z,1.00
2023-12-31T12:41:32.116Z,1.42
2023-12-31T12:44:01.157Z,1.20
2023-12-31T12:46:30.739Z,1.00
2023-12-31T12:48:59.646Z,1.02
2023-12-31T12:51:29.028Z,1.10
2023-12-31T12:53:58.474Z,0.90
2023-12-31T12:56:27.437Z,0.77
2023-12-31T12:58:56.969Z,1.20
2023-12-31T13:01:26.461Z,0.80
2023-12-31T13:03:54.871Z,0.85
2023-12-31T13:06:23.808Z,0.93
2023-12-31T13:08:53.185Z,0.90
2023-12-31T13:11:22.182Z,1.13
2023-12-31T13:13:50.936Z,1.00
2023-12-31T13:16:23.326Z,1.10
2023-12-31T13:18:53.822Z,0.88
2023-12-31T13:21:22.213Z,1.30
2023-12-31T13:23:51.409Z,1.40
2023-12-31T13:26:20.971Z,1.20
2023-12-31T13:28:50.421Z,0.95
2023-12-31T13:31:19.730Z,0.70
2023-12-31T13:33:48.803Z,0.90
2023-12-31T13:36:17.817Z,1.00
2023-12-31T13:38:46.686Z,0.93
2023-12-31T13:41:15.977Z,0.90
2023-12-31T13:43:45.675Z,1.00
2023-12-31T13:46:14.603Z,0.90
2023-12-31T13:48:43.284Z,1.30
2023-12-31T13:51:11.709Z,1.30
2023-12-31T13:53:40.063Z,1.10
2023-12-31T13:56:08.350Z,1.10
2023-12-31T13:58:36.608Z,1.00
2023-12-31T14:01:04.810Z,1.10
2023-12-31T14:03:33.147Z,1.10
2023-12-31T14:06:02.422Z,1.20
2023-12-31T14:08:32.056Z,1.00
2023-12-31T14:11:01.707Z,1.35
2023-12-31T14:13:31.085Z,1.05
2023-12-31T14:16:00.603Z,0.90
2023-12-31T14:18:30.211Z,1.40
2023-12-31T14:20:59.145Z,1.20
2023-12-31T14:23:28.003Z,1.10
2023-12-31T14:25:57.440Z,1.40
2023-12-31T14:28:26.891Z,1.10
2023-12-31T14:30:55.896Z,1.20
2023-12-31T14:33:25.438Z,1.30
2023-12-31T14:35:54.828Z,1.30
2023-12-31T14:38:24.366Z,1.10
2023-12-31T14:40:53.329Z,1.25
2023-12-31T14:43:22.144Z,1.52
2023-12-31T14:45:54.085Z,1.40
2023-12-31T14:48:23.983Z,1.45
2023-12-31T14:50:52.996Z,1.42
2023-12-31T14:53:22.432Z,1.27
2023-12-31T14:55:51.968Z,1.10
2023-12-31T14:58:23.077Z,1.50
2023-12-31T15:00:52.793Z,1.50
2023-12-31T15:03:21.545Z,1.83
2023-12-31T15:05:50.659Z,1.80
2023-12-31T15:08:20.217Z,1.50
2023-12-31T15:10:49.766Z,1.42
2023-12-31T15:13:19.271Z,1.20
2023-12-31T15:15:48.725Z,1.60
2023-12-31T15:18:18.753Z,1.75
2023-12-31T15:20:47.730Z,1.63
2023-12-31T15:23:16.771Z,2.00
2023-12-31T15:25:45.808Z,1.88
2023-12-31T15:28:15.325Z,1.65
2023-12-31T15:30:44.833Z,1.95
2023-12-31T15:33:14.390Z,1.85
2023-12-31T15:35:44.005Z,1.92
2023-12-31T15:38:13.612Z,2.08
2023-12-31T15:40:42.668Z,1.90
2023-12-31T15:43:12.275Z,1.88
2023-12-31T15:45:41.353Z,1.80
2023-12-31T15:48:10.918Z,1.83
2023-12-31T15:50:40.412Z,2.00
2023-12-31T15:53:09.866Z,1.60
2023-12-31T15:55:38.821Z,2.10
2023-12-31T15:58:08.267Z,2.10
2023-12-31T16:00:38.782Z,2.00
2023-12-31T16:03:08.439Z,2.30
2023-12-31T16:05:37.808Z,1.90
2023-12-31T16:08:07.021Z,2.22
2023-12-31T16:10:36.678Z,1.98
2023-12-31T16:13:05.698Z,2.15
2023-12-31T16:15:34.632Z,2.05
2023-12-31T16:18:04.608Z,2.50
2023-12-31T16:20:33.755Z,1.73
2023-12-31T16:23:03.291Z,2.60
2023-12-31T16:25:32.510Z,2.22
2023-12-31T16:28:01.529Z,2.42
2023-12-31T16:30:31.919Z,2.88
2023-12-31T16:33:02.273Z,2.60
2023-12-31T16:35:31.327Z,3.15
2023-12-31T16:38:00.789Z,2.65
2023-12-31T16:40:29.825Z,2.45
2023-12-31T16:42:58.908Z,2.72
2023-12-31T16:45:28.306Z,2.83
2023-12-31T16:47:58.507Z,2.80
2023-12-31T16:50:28.861Z,2.70
2023-12-31T16:52:57.892Z,2.80
2023-12-31T16:55:27.748Z,2.60
2023-12-31T16:57:56.990Z,2.53
2023-12-31T17:00:26.331Z,2.85
2023-12-31T17:02:55.656Z,2.80
2023-12-31T17:05:25.366Z,2.83
2023-12-31T17:07:54.163Z,2.92
2023-12-31T17:10:23.024Z,3.63
2023-12-31T17:12:53.888Z,4.28
2023-12-31T17:15:24.557Z,3.80
2023-12-31T17:17:54.221Z,3.28
2023-12-31T17:20:22.996Z,3.50
2023-12-31T17:22:51.343Z,3.58
2023-12-31T17:25:20.103Z,3.67
2023-12-31T17:27:48.837Z,3.38
2023-12-31T17:30:17.930Z,3.10
2023-12-31T17:32:47.425Z,3.05
2023-12-31T17:35:16.624Z,3.47
2023-12-31T17:37:44.947Z,3.45
2023-12-31T17:40:14.019Z,2.97
2023-12-31T17:42:43.579Z,3.65
2023-12-31T17:45:12.594Z,3.45
2023-12-31T17:47:42.420Z,3.67
2023-12-31T17:50:11.703Z,3.10
2023-12-31T17:52:40.796Z,4.22
2023-12-31T17:55:10.155Z,3.47
2023-12-31T17:57:39.224Z,3.47
2023-12-31T18:00:08.491Z,3.30
2023-12-31T18:02:38.009Z,3.58
2023-12-31T18:05:07.474Z,4.15
2023-12-31T18:07:36.577Z,2.78
2023-12-31T18:10:07.910Z,3.83
2023-12-31T18:12:38.873Z,3.40
2023-12-31T18:15:07.862Z,3.15
2023-12-31T18:17:37.356Z,4.45
2023-12-31T18:20:06.876Z,3.10
2023-12-31T18:22:36.436Z,3.53
2023-12-31T18:25:05.987Z,4.65
2023-12-31T18:27:35.395Z,3.85
2023-12-31T18:30:11.705Z,3.83
2023-12-31T18:32:48.766Z,3.92
2023-12-31T18:35:17.810Z,4.15
2023-12-31T18:37:46.779Z,3.50
2023-12-31T18:40:15.759Z,3.90
2023-12-31T18:42:45.161Z,3.90
2023-12-31T18:45:14.561Z,4.00
2023-12-31T18:47:44.161Z,5.13
2023-12-31T18:50:13.099Z,4.93
2023-12-31T18:52:42.421Z,4.38
2023-12-31T18:55:11.725Z,4.63
2023-12-31T18:57:40.348Z,4.35
2023-12-31T19:00:09.234Z,4.28
2023-12-31T19:02:38.085Z,4.38
2023-12-31T19:05:07.192Z,6.80
2023-12-31T19:07:35.860Z,5.40
2023-12-31T19:10:05.366Z,4.40
2023-12-31T19:12:34.254Z,5.10
2023-12-31T19:15:03.356Z,5.28
2023-12-31T19:17:32.825Z,5.10
2023-12-31T19:20:02.458Z,4.90
2023-12-31T19:22:31.446Z,5.43
2023-12-31T19:25:00.779Z,5.15
2023-12-31T19:27:29.829Z,4.65
2023-12-31T19:29:58.124Z,4.63
2023-12-31T19:32:27.521Z,5.00
2023-12-31T19:34:56.659Z,4.57
2023-12-31T19:37:25.856Z,4.90
2023-12-31T19:39:54.165Z,5.57
2023-12-31T19:42:23.212Z,5.07
2023-12-31T19:44:52.619Z,4.47
2023-12-31T19:47:22.029Z,4.38
2023-12-31T19:49:58.460Z,4.82
2023-12-31T19:52:29.127Z,4.53
2023-12-31T19:54:58.227Z,4.05
2023-12-31T19:57:27.708Z,4.25
2023-12-31T19:59:57.229Z,4.63
2023-12-31T20:02:26.124Z,4.63
2023-12-31T20:04:55.598Z,4.47
2023-12-31T20:07:24.668Z,4.65
2023-12-31T20:09:54.166Z,3.90
2023-12-31T20:12:22.805Z,4.90
2023-12-31T20:14:51.611Z,4.30
2023-12-31T20:17:20.604Z,4.05
2023-12-31T20:19:49.422Z,3.88
2023-12-31T20:22:18.351Z,4.20
2023-12-31T20:24:47.277Z,4.72
2023-12-31T20:27:16.242Z,3.67
2023-12-31T20:29:45.608Z,3.63
2023-12-31T20:32:15.099Z,4.50
2023-12-31T20:34:44.137Z,3.70
2023-12-31T20:37:13.469Z,3.90
2023-12-31T20:39:42.274Z,3.75
2023-12-31T20:42:11.013Z,3.25
2023-12-31T20:44:39.860Z,3.85
2023-12-31T20:47:09.254Z,3.78
2023-12-31T20:49:38.735Z,3.80
2023-12-31T20:52:07.958Z,3.83
2023-12-31T20:54:37.446Z,4.20
2023-12-31T20:57:06.893Z,3.83
2023-12-31T20:59:35.794Z,3.30
2023-12-31T21:02:04.703Z,3.85
2023-12-31T21:04:34.138Z,3.65
2023-12-31T21:07:03.705Z,3.10
2023-12-31T21:09:32.617Z,3.42
2023-12-31T21:12:02.035Z,3.33
2023-12-31T21:14:31.500Z,3.40
2023-12-31T21:17:00.538Z,3.75
2023-12-31T21:19:30.478Z,3.58
2023-12-31T21:21:59.875Z,3.75
2023-12-31T21:24:29.152Z,3.53
2023-12-31T21:26:58.419Z,4.13
2023-12-31T21:29:27.860Z,3.05
2023-12-31T21:31:57.311Z,3.28
2023-12-31T21:34:26.738Z,3.83
2023-12-31T21:36:56.207Z,3.55
2023-12-31T21:39:25.075Z,3.50
2023-12-31T21:41:54.415Z,3.20
2023-12-31T21:44:23.763Z,3.33
2023-12-31T21:46:53.198Z,3.17
2023-12-31T21:49:22.825Z,3.40
2023-12-31T21:51:52.477Z,3.90
2023-12-31T21:54:22.431Z,3.10
2023-12-31T21:57:00.858Z,3.50
2023-12-31T21:59:33.271Z,3.50
2023-12-31T22:02:02.967Z,2.78
2023-12-31T22:04:32.417Z,3.30
2023-12-31T22:07:01.504Z,3.58
2023-12-31T22:09:31.033Z,2.80
2023-12-31T22:12:00.530Z,4.35
2023-12-31T22:14:30.103Z,3.25
2023-12-31T22:17:00.398Z,3.17
2023-12-31T22:19:30.629Z,3.47
2023-12-31T22:22:00.207Z,3.75
2023-12-31T22:24:29.533Z,4.32
2023-12-31T22:26:58.475Z,3.70
2023-12-31T22:29:27.341Z,3.95
2023-12-31T22:31:56.186Z,3.50
2023-12-31T22:34:25.027Z,3.33
2023-12-31T22:36:55.356Z,3.47
2023-12-31T22:39:24.742Z,3.80
2023-12-31T22:41:53.651Z,3.40
2023-12-31T22:44:23.083Z,4.47
2023-12-31T22:46:52.586Z,3.50
2023-12-31T22:49:21.679Z,3.65
2023-12-31T22:51:50.720Z,3.40
2023-12-31T22:54:19.558Z,3.72
2023-12-31T22:56:48.880Z,3.53
2023-12-31T22:59:18.397Z,4.57
2023-12-31T23:01:47.889Z,4.03
2023-12-31T23:04:16.980Z,8.88
2023-12-31T23:06:45.740Z,7.65
2023-12-31T23:09:15.166Z,12.65
2023-12-31T23:11:44.180Z,12.75
2023-12-31T23:14:13.323Z,11.07
2023-12-31T23:16:42.767Z,17.58
2023-12-31T23:19:11.773Z,20.60
2023-12-31T23:21:41.309Z,11.57
2023-12-31T23:24:10.669Z,12.02
2023-12-31T23:26:39.861Z,13.68
2023-12-31T23:29:08.787Z,12.93
2023-12-31T23:31:38.238Z,14.13
2023-12-31T23:34:07.708Z,13.73
2023-12-31T23:36:39.748Z,12.73
2023-12-31T23:39:12.711Z,16.33
2023-12-31T23:41:45.095Z,15.20
2023-12-31T23:44:20.082Z,17.55
2023-12-31T23:46:52.382Z,14.82
2023-12-31T23:49:21.869Z,17.25
2023-12-31T23:51:51.271Z,17.02
2023-12-31T23:54:20.740Z,17.23
2023-12-31T23:56:50.406Z,16.52
2023-12-31T23:59:19.346Z,16.50
